sensor_id;sensor_type;location;lat;lon;timestamp;P1;durP1;ratioP1;P2;durP2;ratioP2
78288;SDS011;67539;48.752;12.922;2023-05-14T00:01:40;7.93;;;6.93;;
78288;SDS011;67539;48.752;12.922;2023-05-14T00:04:08;8.00;;;6.67;;
78288;SDS011;67539;48.752;12.922;2023-05-14T00:06:37;7.43;;;6.73;;
78288;SDS011;67539;48.752;12.922;2023-05-14T00:09:06;8.53;;;7.63;;
78288;SDS011;67539;48.752;12.922;2023-05-14T00:11:35;7.33;;;6.60;;
78288;SDS011;67539;48.752;12.922;2023-05-14T00:14:03;7.77;;;6.97;;
78288;SDS011;67539;48.752;12.922;2023-05-14T00:16:31;7.37;;;6.60;;
78288;SDS011;67539;48.752;12.922;2023-05-14T00:19:00;8.57;;;6.77;;
78288;SDS011;67539;48.752;12.922;2023-05-14T00:21:28;8.00;;;7.00;;
78288;SDS011;67539;48.752;12.922;2023-05-14T00:23:57;8.13;;;7.33;;
78288;SDS011;67539;48.752;12.922;2023-05-14T00:26:26;7.10;;;6.50;;
78288;SDS011;67539;48.752;12.922;2023-05-14T00:28:55;8.10;;;7.30;;
78288;SDS011;67539;48.752;12.922;2023-05-14T00:31:23;7.43;;;6.63;;
78288;SDS011;67539;48.752;12.922;2023-05-14T00:33:51;8.40;;;6.93;;
78288;SDS011;67539;48.752;12.922;2023-05-14T00:36:20;7.80;;;6.30;;
78288;SDS011;67539;48.752;12.922;2023-05-14T00:38:48;9.77;;;7.30;;
78288;SDS011;67539;48.752;12.922;2023-05-14T00:41:17;10.30;;;6.50;;
78288;SDS011;67539;48.752;12.922;2023-05-14T00:43:46;8.73;;;6.70;;
78288;SDS011;67539;48.752;12.922;2023-05-14T00:46:15;7.60;;;6.53;;
78288;SDS011;67539;48.752;12.922;2023-05-14T00:48:44;10.60;;;6.83;;
78288;SDS011;67539;48.752;12.922;2023-05-14T00:51:12;7.13;;;6.40;;
78288;SDS011;67539;48.752;12.922;2023-05-14T00:53:42;7.03;;;6.33;;
78288;SDS011;67539;48.752;12.922;2023-05-14T00:56:10;6.90;;;6.30;;
78288;SDS011;67539;48.752;12.922;2023-05-14T00:58:40;7.27;;;6.57;;
78288;SDS011;67539;48.752;12.922;2023-05-14T01:01:10;10.00;;;6.63;;
78288;SDS011;67539;48.752;12.922;2023-05-14T01:03:40;8.70;;;7.80;;
78288;SDS011;67539;48.752;12.922;2023-05-14T01:06:11;7.33;;;5.83;;
78288;SDS011;67539;48.752;12.922;2023-05-14T01:08:45;9.40;;;7.10;;
78288;SDS011;67539;48.752;12.922;2023-05-14T01:11:23;7.73;;;6.83;;
78288;SDS011;67539;48.752;12.922;2023-05-14T01:13:57;7.57;;;6.80;;
78288;SDS011;67539;48.752;12.922;2023-05-14T01:16:33;7.53;;;6.67;;
78288;SDS011;67539;48.752;12.922;2023-05-14T01:19:03;11.77;;;7.90;;
78288;SDS011;67539;48.752;12.922;2023-05-14T01:21:38;6.60;;;6.00;;
78288;SDS011;67539;48.752;12.922;2023-05-14T01:24:10;7.20;;;6.50;;
78288;SDS011;67539;48.752;12.922;2023-05-14T01:26:38;7.77;;;7.00;;
78288;SDS011;67539;48.752;12.922;2023-05-14T01:29:08;6.90;;;6.20;;
78288;SDS011;67539;48.752;12.922;2023-05-14T01:31:49;9.57;;;7.80;;
78288;SDS011;67539;48.752;12.922;2023-05-14T01:34:21;6.87;;;6.17;;
78288;SDS011;67539;48.752;12.922;2023-05-14T01:36:52;9.27;;;7.47;;
78288;SDS011;67539;48.752;12.922;2023-05-14T01:39:23;7.33;;;6.63;;
78288;SDS011;67539;48.752;12.922;2023-05-14T01:41:53;7.33;;;6.40;;
78288;SDS011;67539;48.752;12.922;2023-05-14T01:44:22;8.57;;;7.67;;
78288;SDS011;67539;48.752;12.922;2023-05-14T01:46:51;7.57;;;6.80;;
78288;SDS011;67539;48.752;12.922;2023-05-14T01:49:19;10.07;;;8.07;;
78288;SDS011;67539;48.752;12.922;2023-05-14T01:51:48;9.23;;;7.00;;
78288;SDS011;67539;48.752;12.922;2023-05-14T01:54:17;6.67;;;5.90;;
78288;SDS011;67539;48.752;12.922;2023-05-14T01:56:46;7.57;;;6.77;;
78288;SDS011;67539;48.752;12.922;2023-05-14T01:59:14;8.60;;;6.93;;
78288;SDS011;67539;48.752;12.922;2023-05-14T02:01:42;7.50;;;6.70;;
78288;SDS011;67539;48.752;12.922;2023-05-14T02:04:11;8.23;;;6.40;;
78288;SDS011;67539;48.752;12.922;2023-05-14T02:06:40;6.50;;;5.90;;
78288;SDS011;67539;48.752;12.922;2023-05-14T02:09:08;7.30;;;6.60;;
78288;SDS011;67539;48.752;12.922;2023-05-14T02:11:38;6.50;;;5.80;;
78288;SDS011;67539;48.752;12.922;2023-05-14T02:14:06;7.10;;;6.37;;
78288;SDS011;67539;48.752;12.922;2023-05-14T02:16:35;7.70;;;6.80;;
78288;SDS011;67539;48.752;12.922;2023-05-14T02:19:03;6.97;;;6.27;;
78288;SDS011;67539;48.752;12.922;2023-05-14T02:21:31;7.27;;;6.57;;
78288;SDS011;67539;48.752;12.922;2023-05-14T02:24:00;7.50;;;6.60;;
78288;SDS011;67539;48.752;12.922;2023-05-14T02:26:28;8.93;;;7.30;;
78288;SDS011;67539;48.752;12.922;2023-05-14T02:28:58;7.80;;;6.90;;
78288;SDS011;67539;48.752;12.922;2023-05-14T02:31:26;7.43;;;6.70;;
78288;SDS011;67539;48.752;12.922;2023-05-14T02:33:54;9.17;;;7.83;;
78288;SDS011;67539;48.752;12.922;2023-05-14T02:36:23;8.10;;;7.00;;
78288;SDS011;67539;48.752;12.922;2023-05-14T02:38:51;10.83;;;6.80;;
78288;SDS011;67539;48.752;12.922;2023-05-14T02:41:20;13.23;;;8.17;;
78288;SDS011;67539;48.752;12.922;2023-05-14T02:43:50;7.53;;;6.50;;
78288;SDS011;67539;48.752;12.922;2023-05-14T02:46:21;8.20;;;6.70;;
78288;SDS011;67539;48.752;12.922;2023-05-14T02:48:49;8.23;;;6.87;;
78288;SDS011;67539;48.752;12.922;2023-05-14T02:51:18;8.33;;;7.00;;
78288;SDS011;67539;48.752;12.922;2023-05-14T02:53:47;8.60;;;7.10;;
78288;SDS011;67539;48.752;12.922;2023-05-14T02:56:16;7.90;;;7.10;;
78288;SDS011;67539;48.752;12.922;2023-05-14T02:58:44;9.80;;;8.13;;
78288;SDS011;67539;48.752;12.922;2023-05-14T03:01:13;8.90;;;8.00;;
78288;SDS011;67539;48.752;12.922;2023-05-14T03:03:43;8.40;;;7.47;;
78288;SDS011;67539;48.752;12.922;2023-05-14T03:06:12;9.93;;;8.57;;
78288;SDS011;67539;48.752;12.922;2023-05-14T03:08:40;9.60;;;8.60;;
78288;SDS011;67539;48.752;12.922;2023-05-14T03:11:08;9.47;;;8.30;;
78288;SDS011;67539;48.752;12.922;2023-05-14T03:13:37;13.20;;;8.60;;
78288;SDS011;67539;48.752;12.922;2023-05-14T03:16:05;9.70;;;7.90;;
78288;SDS011;67539;48.752;12.922;2023-05-14T03:18:35;8.33;;;7.50;;
78288;SDS011;67539;48.752;12.922;2023-05-14T03:21:04;9.00;;;8.10;;
78288;SDS011;67539;48.752;12.922;2023-05-14T03:23:34;8.07;;;7.30;;
78288;SDS011;67539;48.752;12.922;2023-05-14T03:26:02;7.90;;;7.00;;
78288;SDS011;67539;48.752;12.922;2023-05-14T03:28:31;9.20;;;7.73;;
78288;SDS011;67539;48.752;12.922;2023-05-14T03:31:00;8.77;;;7.43;;
78288;SDS011;67539;48.752;12.922;2023-05-14T03:33:28;8.37;;;7.23;;
78288;SDS011;67539;48.752;12.922;2023-05-14T03:35:57;8.40;;;7.50;;
78288;SDS011;67539;48.752;12.922;2023-05-14T03:38:27;8.03;;;7.03;;
78288;SDS011;67539;48.752;12.922;2023-05-14T03:40:56;8.47;;;7.00;;
78288;SDS011;67539;48.752;12.922;2023-05-14T03:43:25;7.80;;;7.00;;
78288;SDS011;67539;48.752;12.922;2023-05-14T03:45:53;9.33;;;8.07;;
78288;SDS011;67539;48.752;12.922;2023-05-14T03:48:22;10.60;;;9.50;;
78288;SDS011;67539;48.752;12.922;2023-05-14T03:50:51;9.47;;;8.37;;
78288;SDS011;67539;48.752;12.922;2023-05-14T03:53:19;8.57;;;7.43;;
78288;SDS011;67539;48.752;12.922;2023-05-14T03:55:49;8.07;;;7.27;;
78288;SDS011;67539;48.752;12.922;2023-05-14T03:58:17;7.67;;;6.20;;
78288;SDS011;67539;48.752;12.922;2023-05-14T04:00:45;9.80;;;7.80;;
78288;SDS011;67539;48.752;12.922;2023-05-14T04:03:14;10.17;;;7.63;;
78288;SDS011;67539;48.752;12.922;2023-05-14T04:05:42;8.30;;;7.50;;
78288;SDS011;67539;48.752;12.922;2023-05-14T04:08:11;9.63;;;8.07;;
78288;SDS011;67539;48.752;12.922;2023-05-14T04:10:41;9.83;;;8.17;;
78288;SDS011;67539;48.752;12.922;2023-05-14T04:13:11;10.40;;;8.33;;
78288;SDS011;67539;48.752;12.922;2023-05-14T04:15:39;9.40;;;7.53;;
78288;SDS011;67539;48.752;12.922;2023-05-14T04:18:08;9.27;;;7.83;;
78288;SDS011;67539;48.752;12.922;2023-05-14T04:20:36;9.60;;;7.43;;
78288;SDS011;67539;48.752;12.922;2023-05-14T04:23:06;7.83;;;6.60;;
78288;SDS011;67539;48.752;12.922;2023-05-14T04:25:34;12.23;;;7.90;;
78288;SDS011;67539;48.752;12.922;2023-05-14T04:28:02;8.87;;;7.47;;
78288;SDS011;67539;48.752;12.922;2023-05-14T04:30:32;13.43;;;8.30;;
78288;SDS011;67539;48.752;12.922;2023-05-14T04:33:01;10.20;;;7.33;;
78288;SDS011;67539;48.752;12.922;2023-05-14T04:35:30;9.43;;;8.10;;
78288;SDS011;67539;48.752;12.922;2023-05-14T04:37:58;11.40;;;7.70;;
78288;SDS011;67539;48.752;12.922;2023-05-14T04:40:27;8.23;;;7.43;;
78288;SDS011;67539;48.752;12.922;2023-05-14T04:42:56;9.23;;;8.23;;
78288;SDS011;67539;48.752;12.922;2023-05-14T04:45:24;7.83;;;7.03;;
78288;SDS011;67539;48.752;12.922;2023-05-14T04:47:54;8.40;;;7.60;;
78288;SDS011;67539;48.752;12.922;2023-05-14T04:50:22;8.97;;;7.97;;
78288;SDS011;67539;48.752;12.922;2023-05-14T04:52:51;9.37;;;7.93;;
78288;SDS011;67539;48.752;12.922;2023-05-14T04:55:21;9.77;;;7.83;;
78288;SDS011;67539;48.752;12.922;2023-05-14T04:57:49;11.40;;;9.33;;
78288;SDS011;67539;48.752;12.922;2023-05-14T05:00:18;8.90;;;8.00;;
78288;SDS011;67539;48.752;12.922;2023-05-14T05:02:47;10.47;;;8.90;;
78288;SDS011;67539;48.752;12.922;2023-05-14T05:05:17;11.93;;;9.30;;
78288;SDS011;67539;48.752;12.922;2023-05-14T05:07:46;11.30;;;8.70;;
78288;SDS011;67539;48.752;12.922;2023-05-14T05:10:14;13.53;;;8.63;;
78288;SDS011;67539;48.752;12.922;2023-05-14T05:12:43;10.73;;;9.00;;
78288;SDS011;67539;48.752;12.922;2023-05-14T05:15:11;9.97;;;8.97;;
78288;SDS011;67539;48.752;12.922;2023-05-14T05:17:39;9.53;;;8.50;;
78288;SDS011;67539;48.752;12.922;2023-05-14T05:20:08;11.27;;;9.60;;
78288;SDS011;67539;48.752;12.922;2023-05-14T05:22:39;9.83;;;8.30;;
78288;SDS011;67539;48.752;12.922;2023-05-14T05:25:07;9.73;;;8.17;;
78288;SDS011;67539;48.752;12.922;2023-05-14T05:27:37;8.83;;;7.93;;
78288;SDS011;67539;48.752;12.922;2023-05-14T05:30:06;9.23;;;8.23;;
78288;SDS011;67539;48.752;12.922;2023-05-14T05:32:35;10.20;;;8.40;;
78288;SDS011;67539;48.752;12.922;2023-05-14T05:35:05;9.90;;;7.93;;
78288;SDS011;67539;48.752;12.922;2023-05-14T05:37:34;9.30;;;8.30;;
78288;SDS011;67539;48.752;12.922;2023-05-14T05:40:05;9.60;;;8.60;;
78288;SDS011;67539;48.752;12.922;2023-05-14T05:42:34;12.27;;;9.20;;
78288;SDS011;67539;48.752;12.922;2023-05-14T05:45:03;11.60;;;9.10;;
78288;SDS011;67539;48.752;12.922;2023-05-14T05:47:32;9.27;;;8.27;;
78288;SDS011;67539;48.752;12.922;2023-05-14T05:50:01;10.90;;;9.23;;
78288;SDS011;67539;48.752;12.922;2023-05-14T05:52:29;9.60;;;8.60;;
78288;SDS011;67539;48.752;12.922;2023-05-14T05:54:57;7.37;;;6.63;;
78288;SDS011;67539;48.752;12.922;2023-05-14T05:57:27;8.70;;;7.80;;
78288;SDS011;67539;48.752;12.922;2023-05-14T05:59:56;8.43;;;7.53;;
78288;SDS011;67539;48.752;12.922;2023-05-14T06:02:24;8.13;;;7.23;;
78288;SDS011;67539;48.752;12.922;2023-05-14T06:04:53;7.97;;;7.17;;
78288;SDS011;67539;48.752;12.922;2023-05-14T06:07:21;7.50;;;6.80;;
78288;SDS011;67539;48.752;12.922;2023-05-14T06:09:49;9.27;;;7.40;;
78288;SDS011;67539;48.752;12.922;2023-05-14T06:12:17;9.93;;;7.70;;
78288;SDS011;67539;48.752;12.922;2023-05-14T06:14:47;11.60;;;9.50;;
78288;SDS011;67539;48.752;12.922;2023-05-14T06:17:16;8.80;;;7.87;;
78288;SDS011;67539;48.752;12.922;2023-05-14T06:19:45;7.73;;;6.70;;
78288;SDS011;67539;48.752;12.922;2023-05-14T06:22:13;7.00;;;6.30;;
78288;SDS011;67539;48.752;12.922;2023-05-14T06:24:41;13.20;;;10.57;;
78288;SDS011;67539;48.752;12.922;2023-05-14T06:27:10;9.37;;;8.10;;
78288;SDS011;67539;48.752;12.922;2023-05-14T06:29:38;7.30;;;6.60;;
78288;SDS011;67539;48.752;12.922;2023-05-14T06:32:08;5.50;;;5.00;;
78288;SDS011;67539;48.752;12.922;2023-05-14T06:34:37;7.30;;;6.60;;
78288;SDS011;67539;48.752;12.922;2023-05-14T06:37:05;6.60;;;6.00;;
78288;SDS011;67539;48.752;12.922;2023-05-14T06:39:34;8.25;;;7.50;;
78288;SDS011;67539;48.752;12.922;2023-05-14T06:42:03;7.77;;;6.60;;
78288;SDS011;67539;48.752;12.922;2023-05-14T06:44:32;6.97;;;5.60;;
78288;SDS011;67539;48.752;12.922;2023-05-14T06:47:01;6.60;;;6.00;;
78288;SDS011;67539;48.752;12.922;2023-05-14T06:49:31;5.93;;;5.43;;
78288;SDS011;67539;48.752;12.922;2023-05-14T06:51:59;5.97;;;5.47;;
78288;SDS011;67539;48.752;12.922;2023-05-14T06:54:27;6.43;;;5.83;;
78288;SDS011;67539;48.752;12.922;2023-05-14T06:56:56;6.40;;;5.40;;
78288;SDS011;67539;48.752;12.922;2023-05-14T06:59:25;6.63;;;5.80;;
78288;SDS011;67539;48.752;12.922;2023-05-14T07:01:53;6.30;;;5.67;;
78288;SDS011;67539;48.752;12.922;2023-05-14T07:04:21;6.57;;;5.97;;
78288;SDS011;67539;48.752;12.922;2023-05-14T07:06:52;4.60;;;4.30;;
78288;SDS011;67539;48.752;12.922;2023-05-14T07:09:23;5.33;;;4.93;;
78288;SDS011;67539;48.752;12.922;2023-05-14T07:11:54;6.20;;;5.60;;
78288;SDS011;67539;48.752;12.922;2023-05-14T07:14:22;4.97;;;4.57;;
78288;SDS011;67539;48.752;12.922;2023-05-14T07:16:51;5.40;;;4.90;;
78288;SDS011;67539;48.752;12.922;2023-05-14T07:19:19;4.70;;;4.30;;
78288;SDS011;67539;48.752;12.922;2023-05-14T07:21:48;4.70;;;4.30;;
78288;SDS011;67539;48.752;12.922;2023-05-14T07:24:18;5.23;;;4.83;;
78288;SDS011;67539;48.752;12.922;2023-05-14T07:26:46;5.63;;;5.20;;
78288;SDS011;67539;48.752;12.922;2023-05-14T07:29:14;5.43;;;4.93;;
78288;SDS011;67539;48.752;12.922;2023-05-14T07:31:43;5.40;;;4.93;;
78288;SDS011;67539;48.752;12.922;2023-05-14T07:34:12;5.70;;;5.20;;
78288;SDS011;67539;48.752;12.922;2023-05-14T07:36:40;5.23;;;4.83;;
78288;SDS011;67539;48.752;12.922;2023-05-14T07:39:08;5.40;;;4.90;;
78288;SDS011;67539;48.752;12.922;2023-05-14T07:41:38;5.83;;;5.30;;
78288;SDS011;67539;48.752;12.922;2023-05-14T07:44:06;5.80;;;5.40;;
78288;SDS011;67539;48.752;12.922;2023-05-14T07:46:35;6.00;;;5.50;;
78288;SDS011;67539;48.752;12.922;2023-05-14T07:49:03;5.73;;;5.30;;
78288;SDS011;67539;48.752;12.922;2023-05-14T07:51:31;5.07;;;4.67;;
78288;SDS011;67539;48.752;12.922;2023-05-14T07:53:59;5.93;;;5.43;;
78288;SDS011;67539;48.752;12.922;2023-05-14T07:56:28;5.50;;;5.10;;
78288;SDS011;67539;48.752;12.922;2023-05-14T07:58:57;7.00;;;5.10;;
78288;SDS011;67539;48.752;12.922;2023-05-14T08:01:26;5.77;;;5.27;;
78288;SDS011;67539;48.752;12.922;2023-05-14T08:03:54;5.43;;;5.00;;
78288;SDS011;67539;48.752;12.922;2023-05-14T08:06:23;5.97;;;5.47;;
78288;SDS011;67539;48.752;12.922;2023-05-14T08:08:53;7.50;;;6.00;;
78288;SDS011;67539;48.752;12.922;2023-05-14T08:11:21;7.40;;;6.73;;
78288;SDS011;67539;48.752;12.922;2023-05-14T08:13:49;4.90;;;4.53;;
78288;SDS011;67539;48.752;12.922;2023-05-14T08:16:19;4.93;;;4.50;;
78288;SDS011;67539;48.752;12.922;2023-05-14T08:18:47;5.60;;;5.20;;
78288;SDS011;67539;48.752;12.922;2023-05-14T08:21:15;5.33;;;4.93;;
78288;SDS011;67539;48.752;12.922;2023-05-14T08:23:45;5.33;;;4.83;;
78288;SDS011;67539;48.752;12.922;2023-05-14T08:26:13;5.70;;;5.30;;
78288;SDS011;67539;48.752;12.922;2023-05-14T08:28:41;5.87;;;5.37;;
78288;SDS011;67539;48.752;12.922;2023-05-14T08:31:09;5.77;;;5.30;;
78288;SDS011;67539;48.752;12.922;2023-05-14T08:33:41;5.83;;;5.23;;
78288;SDS011;67539;48.752;12.922;2023-05-14T08:36:10;4.77;;;4.40;;
78288;SDS011;67539;48.752;12.922;2023-05-14T08:38:39;5.00;;;4.60;;
78288;SDS011;67539;48.752;12.922;2023-05-14T08:41:07;5.27;;;4.87;;
78288;SDS011;67539;48.752;12.922;2023-05-14T08:43:43;5.67;;;5.27;;
78288;SDS011;67539;48.752;12.922;2023-05-14T08:46:17;5.30;;;4.90;;
78288;SDS011;67539;48.752;12.922;2023-05-14T08:48:53;5.40;;;5.00;;
78288;SDS011;67539;48.752;12.922;2023-05-14T08:51:24;5.43;;;5.03;;
78288;SDS011;67539;48.752;12.922;2023-05-14T08:53:54;5.57;;;5.07;;
78288;SDS011;67539;48.752;12.922;2023-05-14T08:56:25;4.93;;;4.53;;
78288;SDS011;67539;48.752;12.922;2023-05-14T08:58:54;5.33;;;4.93;;
78288;SDS011;67539;48.752;12.922;2023-05-14T09:01:22;5.67;;;5.27;;
78288;SDS011;67539;48.752;12.922;2023-05-14T09:03:53;5.77;;;5.17;;
78288;SDS011;67539;48.752;12.922;2023-05-14T09:06:22;4.73;;;4.43;;
78288;SDS011;67539;48.752;12.922;2023-05-14T09:08:52;5.07;;;4.67;;
78288;SDS011;67539;48.752;12.922;2023-05-14T09:11:20;4.97;;;4.67;;
78288;SDS011;67539;48.752;12.922;2023-05-14T09:13:50;5.23;;;4.80;;
78288;SDS011;67539;48.752;12.922;2023-05-14T09:16:18;5.20;;;4.80;;
78288;SDS011;67539;48.752;12.922;2023-05-14T09:18:47;5.40;;;5.00;;
78288;SDS011;67539;48.752;12.922;2023-05-14T09:21:18;5.30;;;4.90;;
78288;SDS011;67539;48.752;12.922;2023-05-14T09:23:47;6.57;;;5.97;;
78288;SDS011;67539;48.752;12.922;2023-05-14T09:26:22;4.97;;;4.57;;
78288;SDS011;67539;48.752;12.922;2023-05-14T09:28:54;5.17;;;4.77;;
78288;SDS011;67539;48.752;12.922;2023-05-14T09:31:26;5.53;;;5.10;;
78288;SDS011;67539;48.752;12.922;2023-05-14T09:33:56;5.20;;;4.70;;
78288;SDS011;67539;48.752;12.922;2023-05-14T09:36:26;22.20;;;7.13;;
78288;SDS011;67539;48.752;12.922;2023-05-14T09:38:55;18.53;;;6.97;;
78288;SDS011;67539;48.752;12.922;2023-05-14T09:41:24;6.10;;;5.60;;
78288;SDS011;67539;48.752;12.922;2023-05-14T09:43:53;5.60;;;5.20;;
78288;SDS011;67539;48.752;12.922;2023-05-14T09:46:22;4.97;;;4.67;;
78288;SDS011;67539;48.752;12.922;2023-05-14T09:48:55;5.00;;;4.70;;
78288;SDS011;67539;48.752;12.922;2023-05-14T09:51:24;4.70;;;4.40;;
78288;SDS011;67539;48.752;12.922;2023-05-14T09:53:54;4.87;;;4.57;;
78288;SDS011;67539;48.752;12.922;2023-05-14T09:56:22;5.17;;;4.77;;
78288;SDS011;67539;48.752;12.922;2023-05-14T09:58:50;4.83;;;4.43;;
78288;SDS011;67539;48.752;12.922;2023-05-14T10:01:18;4.77;;;4.47;;
78288;SDS011;67539;48.752;12.922;2023-05-14T10:03:48;4.53;;;4.23;;
78288;SDS011;67539;48.752;12.922;2023-05-14T10:06:18;4.40;;;4.20;;
78288;SDS011;67539;48.752;12.922;2023-05-14T10:08:51;4.67;;;4.37;;
78288;SDS011;67539;48.752;12.922;2023-05-14T10:11:23;4.80;;;4.43;;
78288;SDS011;67539;48.752;12.922;2023-05-14T10:13:52;4.47;;;4.17;;
78288;SDS011;67539;48.752;12.922;2023-05-14T10:16:30;4.67;;;4.37;;
78288;SDS011;67539;48.752;12.922;2023-05-14T10:19:02;5.10;;;4.70;;
78288;SDS011;67539;48.752;12.922;2023-05-14T10:21:34;5.20;;;4.80;;
78288;SDS011;67539;48.752;12.922;2023-05-14T10:24:06;5.30;;;4.90;;
78288;SDS011;67539;48.752;12.922;2023-05-14T10:26:35;5.27;;;4.87;;
78288;SDS011;67539;48.752;12.922;2023-05-14T10:29:06;4.67;;;4.37;;
78288;SDS011;67539;48.752;12.922;2023-05-14T10:31:45;4.80;;;4.50;;
78288;SDS011;67539;48.752;12.922;2023-05-14T10:34:34;4.90;;;4.60;;
78288;SDS011;67539;48.752;12.922;2023-05-14T10:37:05;5.60;;;5.10;;
78288;SDS011;67539;48.752;12.922;2023-05-14T10:39:46;5.03;;;4.63;;
78288;SDS011;67539;48.752;12.922;2023-05-14T10:42:16;5.60;;;5.20;;
78288;SDS011;67539;48.752;12.922;2023-05-14T10:44:47;4.60;;;4.30;;
78288;SDS011;67539;48.752;12.922;2023-05-14T10:47:17;5.20;;;4.80;;
78288;SDS011;67539;48.752;12.922;2023-05-14T10:49:47;5.10;;;4.80;;
78288;SDS011;67539;48.752;12.922;2023-05-14T10:52:16;5.23;;;4.93;;
78288;SDS011;67539;48.752;12.922;2023-05-14T10:54:50;5.03;;;4.73;;
78288;SDS011;67539;48.752;12.922;2023-05-14T10:57:20;5.87;;;5.37;;
78288;SDS011;67539;48.752;12.922;2023-05-14T10:59:51;5.23;;;4.93;;
78288;SDS011;67539;48.752;12.922;2023-05-14T11:02:23;5.60;;;5.20;;
78288;SDS011;67539;48.752;12.922;2023-05-14T11:04:56;5.43;;;5.03;;
78288;SDS011;67539;48.752;12.922;2023-05-14T11:07:30;5.23;;;4.83;;
78288;SDS011;67539;48.752;12.922;2023-05-14T11:10:02;5.40;;;5.00;;
78288;SDS011;67539;48.752;12.922;2023-05-14T11:12:31;5.13;;;4.83;;
78288;SDS011;67539;48.752;12.922;2023-05-14T11:15:01;5.20;;;4.90;;
78288;SDS011;67539;48.752;12.922;2023-05-14T11:17:31;4.40;;;4.20;;
78288;SDS011;67539;48.752;12.922;2023-05-14T11:20:02;5.33;;;5.03;;
78288;SDS011;67539;48.752;12.922;2023-05-14T11:22:31;4.97;;;4.67;;
78288;SDS011;67539;48.752;12.922;2023-05-14T11:25:02;5.10;;;4.70;;
78288;SDS011;67539;48.752;12.922;2023-05-14T11:27:32;5.50;;;5.10;;
78288;SDS011;67539;48.752;12.922;2023-05-14T11:30:02;5.00;;;4.70;;
78288;SDS011;67539;48.752;12.922;2023-05-14T11:32:31;5.50;;;5.10;;
78288;SDS011;67539;48.752;12.922;2023-05-14T11:35:00;6.47;;;5.77;;
78288;SDS011;67539;48.752;12.922;2023-05-14T11:37:29;7.10;;;6.47;;
78288;SDS011;67539;48.752;12.922;2023-05-14T11:39:58;7.00;;;6.50;;
78288;SDS011;67539;48.752;12.922;2023-05-14T11:42:30;6.73;;;6.23;;
78288;SDS011;67539;48.752;12.922;2023-05-14T11:44:59;7.07;;;6.57;;
78288;SDS011;67539;48.752;12.922;2023-05-14T11:47:28;7.10;;;6.50;;
78288;SDS011;67539;48.752;12.922;2023-05-14T11:49:57;7.10;;;6.50;;
78288;SDS011;67539;48.752;12.922;2023-05-14T11:52:27;7.83;;;7.03;;
78288;SDS011;67539;48.752;12.922;2023-05-14T11:54:55;7.47;;;6.87;;
78288;SDS011;67539;48.752;12.922;2023-05-14T11:57:24;7.80;;;7.10;;
78288;SDS011;67539;48.752;12.922;2023-05-14T11:59:55;7.80;;;7.27;;
78288;SDS011;67539;48.752;12.922;2023-05-14T12:02:25;7.43;;;6.83;;
78288;SDS011;67539;48.752;12.922;2023-05-14T12:04:55;7.60;;;7.00;;
78288;SDS011;67539;48.752;12.922;2023-05-14T12:07:27;8.33;;;7.63;;
78288;SDS011;67539;48.752;12.922;2023-05-14T12:09:59;7.57;;;6.97;;
78288;SDS011;67539;48.752;12.922;2023-05-14T12:12:32;4.17;;;3.87;;
78288;SDS011;67539;48.752;12.922;2023-05-14T12:15:10;3.33;;;2.83;;
78288;SDS011;67539;48.752;12.922;2023-05-14T12:17:39;3.27;;;2.97;;
78288;SDS011;67539;48.752;12.922;2023-05-14T12:20:08;2.83;;;2.73;;
78288;SDS011;67539;48.752;12.922;2023-05-14T12:22:39;2.90;;;2.80;;
78288;SDS011;67539;48.752;12.922;2023-05-14T12:25:09;2.13;;;2.03;;
78288;SDS011;67539;48.752;12.922;2023-05-14T12:27:39;1.80;;;1.70;;
78288;SDS011;67539;48.752;12.922;2023-05-14T12:30:12;3.30;;;2.20;;
78288;SDS011;67539;48.752;12.922;2023-05-14T12:32:43;3.00;;;2.73;;
78288;SDS011;67539;48.752;12.922;2023-05-14T12:35:12;3.03;;;2.87;;
78288;SDS011;67539;48.752;12.922;2023-05-14T12:37:40;3.60;;;3.30;;
78288;SDS011;67539;48.752;12.922;2023-05-14T12:40:09;4.67;;;4.27;;
78288;SDS011;67539;48.752;12.922;2023-05-14T12:42:37;5.33;;;3.40;;
78288;SDS011;67539;48.752;12.922;2023-05-14T12:45:05;3.77;;;3.27;;
78288;SDS011;67539;48.752;12.922;2023-05-14T12:47:35;3.33;;;3.13;;
78288;SDS011;67539;48.752;12.922;2023-05-14T12:50:04;4.00;;;3.60;;
78288;SDS011;67539;48.752;12.922;2023-05-14T12:52:34;4.00;;;3.70;;
78288;SDS011;67539;48.752;12.922;2023-05-14T12:55:05;4.70;;;3.40;;
78288;SDS011;67539;48.752;12.922;2023-05-14T12:57:34;4.40;;;4.00;;
78288;SDS011;67539;48.752;12.922;2023-05-14T13:00:05;4.77;;;4.37;;
78288;SDS011;67539;48.752;12.922;2023-05-14T13:02:41;4.70;;;4.40;;
78288;SDS011;67539;48.752;12.922;2023-05-14T13:05:09;4.97;;;4.57;;
78288;SDS011;67539;48.752;12.922;2023-05-14T13:07:38;5.00;;;4.50;;
78288;SDS011;67539;48.752;12.922;2023-05-14T13:10:07;4.53;;;4.10;;
78288;SDS011;67539;48.752;12.922;2023-05-14T13:12:37;6.90;;;4.50;;
78288;SDS011;67539;48.752;12.922;2023-05-14T13:15:05;5.73;;;4.90;;
78288;SDS011;67539;48.752;12.922;2023-05-14T13:17:34;7.20;;;5.40;;
78288;SDS011;67539;48.752;12.922;2023-05-14T13:20:04;5.00;;;4.60;;
78288;SDS011;67539;48.752;12.922;2023-05-14T13:22:33;5.40;;;5.00;;
78288;SDS011;67539;48.752;12.922;2023-05-14T13:25:02;4.83;;;4.53;;
78288;SDS011;67539;48.752;12.922;2023-05-14T13:27:31;5.03;;;4.63;;
78288;SDS011;67539;48.752;12.922;2023-05-14T13:30:01;5.93;;;4.57;;
78288;SDS011;67539;48.752;12.922;2023-05-14T13:32:29;5.20;;;4.70;;
78288;SDS011;67539;48.752;12.922;2023-05-14T13:34:57;5.33;;;4.93;;
78288;SDS011;67539;48.752;12.922;2023-05-14T13:37:27;5.03;;;4.67;;
78288;SDS011;67539;48.752;12.922;2023-05-14T13:39:55;4.77;;;4.37;;
78288;SDS011;67539;48.752;12.922;2023-05-14T13:42:23;4.93;;;4.57;;
78288;SDS011;67539;48.752;12.922;2023-05-14T13:44:52;5.97;;;5.00;;
78288;SDS011;67539;48.752;12.922;2023-05-14T13:47:21;4.70;;;4.30;;
78288;SDS011;67539;48.752;12.922;2023-05-14T13:49:50;5.40;;;5.00;;
78288;SDS011;67539;48.752;12.922;2023-05-14T13:52:18;5.93;;;5.17;;
78288;SDS011;67539;48.752;12.922;2023-05-14T13:54:47;4.37;;;3.97;;
78288;SDS011;67539;48.752;12.922;2023-05-14T13:57:16;4.93;;;4.53;;
78288;SDS011;67539;48.752;12.922;2023-05-14T13:59:44;4.80;;;4.50;;
78288;SDS011;67539;48.752;12.922;2023-05-14T14:02:13;4.73;;;4.23;;
78288;SDS011;67539;48.752;12.922;2023-05-14T14:04:41;4.23;;;3.83;;
78288;SDS011;67539;48.752;12.922;2023-05-14T14:07:10;5.00;;;4.60;;
78288;SDS011;67539;48.752;12.922;2023-05-14T14:09:38;4.87;;;4.47;;
78288;SDS011;67539;48.752;12.922;2023-05-14T14:12:08;6.57;;;6.07;;
78288;SDS011;67539;48.752;12.922;2023-05-14T14:14:37;8.80;;;7.90;;
78288;SDS011;67539;48.752;12.922;2023-05-14T14:17:06;10.40;;;8.90;;
78288;SDS011;67539;48.752;12.922;2023-05-14T14:19:34;5.43;;;5.03;;
78288;SDS011;67539;48.752;12.922;2023-05-14T14:22:02;4.70;;;4.40;;
78288;SDS011;67539;48.752;12.922;2023-05-14T14:24:31;5.30;;;4.90;;
78288;SDS011;67539;48.752;12.922;2023-05-14T14:26:59;4.97;;;4.57;;
78288;SDS011;67539;48.752;12.922;2023-05-14T14:29:29;5.70;;;5.20;;
78288;SDS011;67539;48.752;12.922;2023-05-14T14:31:57;5.60;;;5.10;;
78288;SDS011;67539;48.752;12.922;2023-05-14T14:34:26;5.60;;;5.00;;
78288;SDS011;67539;48.752;12.922;2023-05-14T14:36:54;5.10;;;4.70;;
78288;SDS011;67539;48.752;12.922;2023-05-14T14:39:22;4.93;;;4.53;;
78288;SDS011;67539;48.752;12.922;2023-05-14T14:41:51;5.60;;;5.10;;
78288;SDS011;67539;48.752;12.922;2023-05-14T14:44:19;5.30;;;4.90;;
78288;SDS011;67539;48.752;12.922;2023-05-14T14:46:49;5.50;;;5.07;;